sensor_id;sensor_type;location;lat;lon;timestamp;pressure;altitude;pressure_sealevel;temperature;humidity
9899;BME280;4988;49.238;6.698;2023-05-02T00:02:08;99380.03;;;9.20;100.00
9899;BME280;4988;49.238;6.698;2023-05-02T00:04:34;99379.09;;;8.97;100.00
9899;BME280;4988;49.238;6.698;2023-05-02T00:06:59;99379.75;;;8.79;100.00
9899;BME280;4988;49.238;6.698;2023-05-02T00:09:25;99381.22;;;8.62;100.00
9899;BME280;4988;49.238;6.698;2023-05-02T00:11:50;99385.03;;;8.53;100.00
9899;BME280;4988;49.238;6.698;2023-05-02T00:14:15;99388.94;;;8.42;100.00
9899;BME280;4988;49.238;6.698;2023-05-02T00:16:41;99382.81;;;8.40;100.00
9899;BME280;4988;49.238;6.698;2023-05-02T00:19:06;99378.59;;;8.34;100.00
9899;BME280;4988;49.238;6.698;2023-05-02T00:21:32;99381.47;;;8.26;100.00
9899;BME280;4988;49.238;6.698;2023-05-02T00:23:57;99379.09;;;8.18;100.00
9899;BME280;4988;49.238;6.698;2023-05-02T00:26:23;99388.91;;;8.15;100.00
9899;BME280;4988;49.238;6.698;2023-05-02T00:28:48;99387.94;;;8.17;100.00
9899;BME280;4988;49.238;6.698;2023-05-02T00:31:13;99385.16;;;8.22;100.00
9899;BME280;4988;49.238;6.698;2023-05-02T00:33:39;99386.00;;;8.24;100.00
9899;BME280;4988;49.238;6.698;2023-05-02T00:36:12;99390.53;;;8.20;100.00
9899;BME280;4988;49.238;6.698;2023-05-02T00:38:37;99383.00;;;8.33;100.00
9899;BME280;4988;49.238;6.698;2023-05-02T00:41:03;99375.56;;;8.45;100.00
9899;BME280;4988;49.238;6.698;2023-05-02T00:43:29;99372.59;;;8.56;100.00
9899;BME280;4988;49.238;6.698;2023-05-02T00:45:55;99382.44;;;8.52;100.00
9899;BME280;4988;49.238;6.698;2023-05-02T00:48:20;99383.53;;;8.46;100.00
9899;BME280;4988;49.238;6.698;2023-05-02T00:50:45;99382.16;;;8.33;100.00
9899;BME280;4988;49.238;6.698;2023-05-02T00:53:11;99392.59;;;8.11;100.00
9899;BME280;4988;49.238;6.698;2023-05-02T00:55:36;99392.78;;;8.04;100.00
9899;BME280;4988;49.238;6.698;2023-05-02T00:58:05;99393.78;;;8.00;100.00
9899;BME280;4988;49.238;6.698;2023-05-02T01:01:02;99397.41;;;7.98;100.00
9899;BME280;4988;49.238;6.698;2023-05-02T01:03:38;99390.22;;;8.01;100.00
9899;BME280;4988;49.238;6.698;2023-05-02T01:09:25;99401.28;;;8.16;100.00
9899;BME280;4988;49.238;6.698;2023-05-02T01:12:03;99395.75;;;8.22;100.00
9899;BME280;4988;49.238;6.698;2023-05-02T01:14:34;99393.78;;;8.29;100.00
9899;BME280;4988;49.238;6.698;2023-05-02T01:17:04;99402.16;;;8.43;100.00
9899;BME280;4988;49.238;6.698;2023-05-02T01:19:35;99400.91;;;8.55;100.00
9899;BME280;4988;49.238;6.698;2023-05-02T01:22:06;99409.59;;;8.60;100.00
9899;BME280;4988;49.238;6.698;2023-05-02T01:30:16;99416.38;;;8.69;100.00
9899;BME280;4988;49.238;6.698;2023-05-02T01:32:45;99415.28;;;8.75;100.00
9899;BME280;4988;49.238;6.698;2023-05-02T01:35:15;99420.00;;;8.66;100.00
9899;BME280;4988;49.238;6.698;2023-05-02T01:37:42;99416.41;;;8.67;100.00
9899;BME280;4988;49.238;6.698;2023-05-02T01:40:09;99419.94;;;8.68;100.00
9899;BME280;4988;49.238;6.698;2023-05-02T01:42:36;99417.34;;;8.66;100.00
9899;BME280;4988;49.238;6.698;2023-05-02T01:45:04;99422.53;;;8.69;100.00
9899;BME280;4988;49.238;6.698;2023-05-02T01:47:32;99410.06;;;8.72;100.00
9899;BME280;4988;49.238;6.698;2023-05-02T01:50:02;99413.34;;;8.80;100.00
9899;BME280;4988;49.238;6.698;2023-05-02T01:52:29;99418.53;;;8.83;100.00
9899;BME280;4988;49.238;6.698;2023-05-02T01:54:56;99416.75;;;8.83;100.00
9899;BME280;4988;49.238;6.698;2023-05-02T01:57:23;99421.31;;;8.80;100.00
9899;BME280;4988;49.238;6.698;2023-05-02T01:59:49;99427.41;;;8.82;100.00
9899;BME280;4988;49.238;6.698;2023-05-02T02:02:15;99421.41;;;8.77;100.00
9899;BME280;4988;49.238;6.698;2023-05-02T02:04:42;99423.13;;;8.78;100.00
9899;BME280;4988;49.238;6.698;2023-05-02T02:07:12;99426.41;;;8.86;100.00
9899;BME280;4988;49.238;6.698;2023-05-02T02:09:38;99439.78;;;8.83;100.00
9899;BME280;4988;49.238;6.698;2023-05-02T02:12:06;99448.00;;;8.75;100.00
9899;BME280;4988;49.238;6.698;2023-05-02T02:14:35;99441.28;;;8.65;100.00
9899;BME280;4988;49.238;6.698;2023-05-02T02:17:05;99448.47;;;8.61;100.00
9899;BME280;4988;49.238;6.698;2023-05-02T02:19:35;99449.97;;;8.42;100.00
9899;BME280;4988;49.238;6.698;2023-05-02T02:22:04;99460.06;;;8.00;100.00
9899;BME280;4988;49.238;6.698;2023-05-02T02:24:34;99462.78;;;7.67;100.00
9899;BME280;4988;49.238;6.698;2023-05-02T02:27:00;99471.94;;;7.57;100.00
9899;BME280;4988;49.238;6.698;2023-05-02T02:29:26;99479.22;;;7.49;100.00
9899;BME280;4988;49.238;6.698;2023-05-02T02:31:52;99479.84;;;7.27;100.00
9899;BME280;4988;49.238;6.698;2023-05-02T02:34:18;99478.19;;;7.21;100.00
9899;BME280;4988;49.238;6.698;2023-05-02T02:42:00;99480.56;;;7.32;100.00
9899;BME280;4988;49.238;6.698;2023-05-02T02:47:09;99486.75;;;7.64;100.00
9899;BME280;4988;49.238;6.698;2023-05-02T02:49:48;99487.69;;;7.62;100.00
9899;BME280;4988;49.238;6.698;2023-05-02T02:52:27;99491.63;;;7.80;100.00
9899;BME280;4988;49.238;6.698;2023-05-02T02:55:06;99504.94;;;7.77;100.00
9899;BME280;4988;49.238;6.698;2023-05-02T02:57:56;99494.28;;;7.80;100.00
9899;BME280;4988;49.238;6.698;2023-05-02T03:00:24;99498.84;;;7.73;100.00
9899;BME280;4988;49.238;6.698;2023-05-02T03:02:52;99503.13;;;7.79;100.00
9899;BME280;4988;49.238;6.698;2023-05-02T03:05:18;99495.03;;;7.83;100.00
9899;BME280;4988;49.238;6.698;2023-05-02T03:07:45;99500.31;;;7.83;100.00
9899;BME280;4988;49.238;6.698;2023-05-02T03:10:10;99509.16;;;7.84;100.00
9899;BME280;4988;49.238;6.698;2023-05-02T03:12:36;99511.81;;;7.84;100.00
9899;BME280;4988;49.238;6.698;2023-05-02T03:17:32;99515.13;;;7.91;100.00
9899;BME280;4988;49.238;6.698;2023-05-02T03:19:57;99529.81;;;7.72;100.00
9899;BME280;4988;49.238;6.698;2023-05-02T03:22:23;99530.88;;;7.65;100.00
9899;BME280;4988;49.238;6.698;2023-05-02T03:24:48;99534.81;;;7.50;100.00
9899;BME280;4988;49.238;6.698;2023-05-02T03:27:13;99535.94;;;7.42;100.00
9899;BME280;4988;49.238;6.698;2023-05-02T03:29:39;99541.16;;;7.45;100.00
9899;BME280;4988;49.238;6.698;2023-05-02T03:32:04;99548.19;;;7.46;100.00
9899;BME280;4988;49.238;6.698;2023-05-02T03:34:29;99549.13;;;7.43;100.00
9899;BME280;4988;49.238;6.698;2023-05-02T03:36:55;99546.59;;;7.38;100.00
9899;BME280;4988;49.238;6.698;2023-05-02T03:39:20;99557.25;;;7.35;100.00
9899;BME280;4988;49.238;6.698;2023-05-02T03:41:46;99560.16;;;7.26;100.00
9899;BME280;4988;49.238;6.698;2023-05-02T03:44:11;99556.81;;;7.19;100.00
9899;BME280;4988;49.238;6.698;2023-05-02T03:46:37;99559.47;;;7.19;100.00
9899;BME280;4988;49.238;6.698;2023-05-02T03:49:02;99552.28;;;7.23;100.00
9899;BME280;4988;49.238;6.698;2023-05-02T03:51:27;99549.47;;;7.29;100.00
9899;BME280;4988;49.238;6.698;2023-05-02T03:53:52;99548.69;;;7.27;100.00
9899;BME280;4988;49.238;6.698;2023-05-02T03:56:19;99541.59;;;7.28;100.00
9899;BME280;4988;49.238;6.698;2023-05-02T03:58:45;99553.97;;;7.27;100.00
9899;BME280;4988;49.238;6.698;2023-05-02T04:01:14;99549.81;;;7.17;100.00
9899;BME280;4988;49.238;6.698;2023-05-02T04:03:40;99551.84;;;7.05;100.00
9899;BME280;4988;49.238;6.698;2023-05-02T04:06:05;99555.56;;;6.98;100.00
9899;BME280;4988;49.238;6.698;2023-05-02T04:08:31;99553.88;;;6.96;100.00
9899;BME280;4988;49.238;6.698;2023-05-02T04:10:56;99555.75;;;6.90;100.00
9899;BME280;4988;49.238;6.698;2023-05-02T04:13:21;99559.41;;;6.85;100.00
9899;BME280;4988;49.238;6.698;2023-05-02T04:15:47;99561.34;;;6.78;100.00
9899;BME280;4988;49.238;6.698;2023-05-02T04:18:12;99558.75;;;6.76;100.00
9899;BME280;4988;49.238;6.698;2023-05-02T04:20:37;99559.44;;;6.83;100.00
9899;BME280;4988;49.238;6.698;2023-05-02T04:23:03;99563.66;;;6.92;100.00
9899;BME280;4988;49.238;6.698;2023-05-02T04:25:28;99561.91;;;6.92;100.00
9899;BME280;4988;49.238;6.698;2023-05-02T04:27:53;99563.91;;;6.83;100.00
9899;BME280;4988;49.238;6.698;2023-05-02T04:30:18;99564.13;;;6.72;100.00
9899;BME280;4988;49.238;6.698;2023-05-02T04:32:44;99557.28;;;6.63;100.00
9899;BME280;4988;49.238;6.698;2023-05-02T04:35:09;99568.06;;;6.55;100.00
9899;BME280;4988;49.238;6.698;2023-05-02T04:37:35;99569.06;;;6.50;100.00
9899;BME280;4988;49.238;6.698;2023-05-02T04:40:00;99567.41;;;6.46;100.00
9899;BME280;4988;49.238;6.698;2023-05-02T04:42:25;99575.47;;;6.39;100.00
9899;BME280;4988;49.238;6.698;2023-05-02T04:44:51;99575.38;;;6.42;100.00
9899;BME280;4988;49.238;6.698;2023-05-02T04:47:18;99575.31;;;6.46;100.00
9899;BME280;4988;49.238;6.698;2023-05-02T04:49:43;99580.41;;;6.55;100.00
9899;BME280;4988;49.238;6.698;2023-05-02T04:52:09;99585.53;;;6.61;100.00
9899;BME280;4988;49.238;6.698;2023-05-02T04:54:34;99594.22;;;6.68;100.00
9899;BME280;4988;49.238;6.698;2023-05-02T04:57:00;99595.25;;;6.60;100.00
9899;BME280;4988;49.238;6.698;2023-05-02T04:59:30;99609.34;;;6.61;100.00
9899;BME280;4988;49.238;6.698;2023-05-02T05:01:55;99602.19;;;6.66;100.00
9899;BME280;4988;49.238;6.698;2023-05-02T05:04:21;99609.16;;;6.70;100.00
9899;BME280;4988;49.238;6.698;2023-05-02T05:06:46;99610.81;;;6.74;100.00
9899;BME280;4988;49.238;6.698;2023-05-02T05:09:13;99608.84;;;6.84;100.00
9899;BME280;4988;49.238;6.698;2023-05-02T05:11:38;99617.72;;;6.82;100.00
9899;BME280;4988;49.238;6.698;2023-05-02T05:14:05;99616.59;;;6.92;100.00
9899;BME280;4988;49.238;6.698;2023-05-02T05:16:31;99614.69;;;6.97;100.00
9899;BME280;4988;49.238;6.698;2023-05-02T05:18:56;99618.78;;;7.11;100.00
9899;BME280;4988;49.238;6.698;2023-05-02T05:21:21;99628.13;;;7.27;100.00
9899;BME280;4988;49.238;6.698;2023-05-02T05:23:47;99626.06;;;7.38;100.00
9899;BME280;4988;49.238;6.698;2023-05-02T05:26:14;99636.97;;;7.61;100.00
9899;BME280;4988;49.238;6.698;2023-05-02T05:28:39;99634.84;;;7.73;100.00
9899;BME280;4988;49.238;6.698;2023-05-02T05:31:09;99638.06;;;7.86;100.00
9899;BME280;4988;49.238;6.698;2023-05-02T05:33:35;99650.94;;;8.00;100.00
9899;BME280;4988;49.238;6.698;2023-05-02T05:36:08;99646.25;;;8.10;100.00
9899;BME280;4988;49.238;6.698;2023-05-02T05:38:34;99646.06;;;8.18;100.00
9899;BME280;4988;49.238;6.698;2023-05-02T05:40:59;99650.22;;;8.27;100.00
9899;BME280;4988;49.238;6.698;2023-05-02T05:43:25;99648.38;;;8.30;100.00
9899;BME280;4988;49.238;6.698;2023-05-02T05:45:51;99649.00;;;8.38;100.00
9899;BME280;4988;49.238;6.698;2023-05-02T05:48:17;99653.34;;;8.41;100.00
9899;BME280;4988;49.238;6.698;2023-05-02T05:50:42;99655.00;;;8.47;100.00
9899;BME280;4988;49.238;6.698;2023-05-02T05:53:08;99651.13;;;8.57;100.00
9899;BME280;4988;49.238;6.698;2023-05-02T05:55:33;99659.84;;;8.62;100.00
9899;BME280;4988;49.238;6.698;2023-05-02T05:57:58;99657.03;;;8.68;100.00
9899;BME280;4988;49.238;6.698;2023-05-02T06:00:24;99666.63;;;8.73;100.00
9899;BME280;4988;49.238;6.698;2023-05-02T06:02:49;99666.44;;;8.79;100.00
9899;BME280;4988;49.238;6.698;2023-05-02T06:05:14;99675.31;;;8.78;100.00
9899;BME280;4988;49.238;6.698;2023-05-02T06:07:40;99676.88;;;8.85;100.00
9899;BME280;4988;49.238;6.698;2023-05-02T06:10:05;99675.63;;;8.97;100.00
9899;BME280;4988;49.238;6.698;2023-05-02T06:12:30;99671.81;;;9.06;100.00
9899;BME280;4988;49.238;6.698;2023-05-02T06:14:56;99675.19;;;9.11;100.00
9899;BME280;4988;49.238;6.698;2023-05-02T06:17:21;99679.59;;;9.12;100.00
9899;BME280;4988;49.238;6.698;2023-05-02T06:19:46;99685.63;;;9.17;100.00
9899;BME280;4988;49.238;6.698;2023-05-02T06:22:12;99680.16;;;9.22;100.00
9899;BME280;4988;49.238;6.698;2023-05-02T06:24:38;99687.81;;;9.32;100.00
9899;BME280;4988;49.238;6.698;2023-05-02T06:27:03;99695.38;;;9.45;100.00
9899;BME280;4988;49.238;6.698;2023-05-02T06:29:28;99695.00;;;9.56;100.00
9899;BME280;4988;49.238;6.698;2023-05-02T06:31:54;99699.81;;;9.71;100.00
9899;BME280;4988;49.238;6.698;2023-05-02T06:34:20;99710.88;;;9.84;100.00
9899;BME280;4988;49.238;6.698;2023-05-02T06:36:46;99707.03;;;9.94;100.00
9899;BME280;4988;49.238;6.698;2023-05-02T06:39:11;99705.75;;;10.05;100.00
9899;BME280;4988;49.238;6.698;2023-05-02T06:41:37;99711.78;;;10.10;100.00
9899;BME280;4988;49.238;6.698;2023-05-02T06:44:02;99716.19;;;10.11;100.00
9899;BME280;4988;49.238;6.698;2023-05-02T06:46:28;99721.34;;;10.16;100.00
9899;BME280;4988;49.238;6.698;2023-05-02T06:48:54;99729.13;;;10.22;100.00
9899;BME280;4988;49.238;6.698;2023-05-02T06:51:20;99728.34;;;10.45;100.00
9899;BME280;4988;49.238;6.698;2023-05-02T06:53:46;99737.03;;;10.74;100.00
9899;BME280;4988;49.238;6.698;2023-05-02T06:56:12;99728.66;;;10.85;100.00
9899;BME280;4988;49.238;6.698;2023-05-02T06:58:37;99731.75;;;10.98;100.00
9899;BME280;4988;49.238;6.698;2023-05-02T07:01:02;99732.97;;;11.11;100.00
9899;BME280;4988;49.238;6.698;2023-05-02T07:03:28;99734.53;;;11.17;99.39
9899;BME280;4988;49.238;6.698;2023-05-02T07:05:53;99735.13;;;11.25;97.84
9899;BME280;4988;49.238;6.698;2023-05-02T07:08:18;99732.16;;;11.33;97.28
9899;BME280;4988;49.238;6.698;2023-05-02T07:10:46;99736.38;;;11.38;95.43
9899;BME280;4988;49.238;6.698;2023-05-02T07:13:11;99746.72;;;11.46;95.37
9899;BME280;4988;49.238;6.698;2023-05-02T07:15:37;99739.97;;;11.59;94.52
9899;BME280;4988;49.238;6.698;2023-05-02T07:18:02;99744.81;;;11.72;93.03
9899;BME280;4988;49.238;6.698;2023-05-02T07:20:27;99741.63;;;11.84;91.05
9899;BME280;4988;49.238;6.698;2023-05-02T07:22:53;99735.44;;;12.06;93.00
9899;BME280;4988;49.238;6.698;2023-05-02T07:25:18;99737.84;;;12.12;91.86
9899;BME280;4988;49.238;6.698;2023-05-02T07:27:43;99737.56;;;12.18;90.58
9899;BME280;4988;49.238;6.698;2023-05-02T07:30:09;99741.84;;;12.22;91.59
9899;BME280;4988;49.238;6.698;2023-05-02T07:32:34;99748.56;;;12.31;91.17
9899;BME280;4988;49.238;6.698;2023-05-02T07:35:00;99739.56;;;12.34;88.43
9899;BME280;4988;49.238;6.698;2023-05-02T07:37:25;99749.44;;;12.32;89.64
9899;BME280;4988;49.238;6.698;2023-05-02T07:39:51;99751.69;;;12.41;90.48
9899;BME280;4988;49.238;6.698;2023-05-02T07:42:16;99753.09;;;12.50;90.62
9899;BME280;4988;49.238;6.698;2023-05-02T07:44:42;99746.91;;;12.49;87.73
9899;BME280;4988;49.238;6.698;2023-05-02T07:47:07;99750.16;;;12.56;86.82
9899;BME280;4988;49.238;6.698;2023-05-02T07:49:33;99752.81;;;12.56;87.08
9899;BME280;4988;49.238;6.698;2023-05-02T07:51:59;99753.72;;;12.57;88.23
9899;BME280;4988;49.238;6.698;2023-05-02T07:54:24;99757.13;;;12.60;88.44
9899;BME280;4988;49.238;6.698;2023-05-02T07:56:52;99759.34;;;12.69;87.20
9899;BME280;4988;49.238;6.698;2023-05-02T07:59:18;99759.53;;;12.85;88.11
9899;BME280;4988;49.238;6.698;2023-05-02T08:01:43;99760.25;;;12.89;86.52
9899;BME280;4988;49.238;6.698;2023-05-02T08:04:09;99755.66;;;12.93;86.63
9899;BME280;4988;49.238;6.698;2023-05-02T08:06:35;99766.06;;;12.99;85.60
9899;BME280;4988;49.238;6.698;2023-05-02T08:09:01;99761.50;;;13.01;85.71
9899;BME280;4988;49.238;6.698;2023-05-02T08:11:26;99762.38;;;13.01;83.08
9899;BME280;4988;49.238;6.698;2023-05-02T08:13:51;99762.16;;;13.06;83.87
9899;BME280;4988;49.238;6.698;2023-05-02T08:16:17;99761.28;;;13.06;79.93
9899;BME280;4988;49.238;6.698;2023-05-02T08:18:43;99758.03;;;12.99;79.49
9899;BME280;4988;49.238;6.698;2023-05-02T08:21:09;99770.09;;;12.89;80.59
9899;BME280;4988;49.238;6.698;2023-05-02T08:23:34;99774.44;;;12.91;80.05
9899;BME280;4988;49.238;6.698;2023-05-02T08:26:01;99773.41;;;12.94;79.99
9899;BME280;4988;49.238;6.698;2023-05-02T08:28:26;99775.00;;;12.98;79.60
9899;BME280;4988;49.238;6.698;2023-05-02T08:30:52;99776.75;;;12.99;78.49
9899;BME280;4988;49.238;6.698;2023-05-02T08:33:17;99777.69;;;12.98;78.86
9899;BME280;4988;49.238;6.698;2023-05-02T08:35:42;99782.91;;;13.01;79.63
9899;BME280;4988;49.238;6.698;2023-05-02T08:38:08;99786.41;;;13.01;79.24
9899;BME280;4988;49.238;6.698;2023-05-02T08:40:35;99786.34;;;13.03;78.46
9899;BME280;4988;49.238;6.698;2023-05-02T08:43:02;99787.22;;;13.03;78.79
9899;BME280;4988;49.238;6.698;2023-05-02T08:45:30;99782.81;;;13.02;78.00
9899;BME280;4988;49.238;6.698;2023-05-02T08:48:07;99781.22;;;13.17;78.43
9899;BME280;4988;49.238;6.698;2023-05-02T08:50:43;99782.81;;;13.22;77.34
9899;BME280;4988;49.238;6.698;2023-05-02T08:53:11;99785.19;;;13.28;77.91
9899;BME280;4988;49.238;6.698;2023-05-02T08:55:40;99788.38;;;13.36;77.82
9899;BME280;4988;49.238;6.698;2023-05-02T08:58:07;99786.38;;;13.41;77.43
9899;BME280;4988;49.238;6.698;2023-05-02T09:00:39;99789.44;;;13.53;76.20
9899;BME280;4988;49.238;6.698;2023-05-02T09:03:14;99796.22;;;13.60;75.88
9899;BME280;4988;49.238;6.698;2023-05-02T09:05:53;99789.28;;;13.75;73.40
9899;BME280;4988;49.238;6.698;2023-05-02T09:08:24;99799.00;;;13.76;72.96
9899;BME280;4988;49.238;6.698;2023-05-02T09:10:49;99803.38;;;13.78;74.43
9899;BME280;4988;49.238;6.698;2023-05-02T09:13:31;99794.06;;;13.86;73.74
9899;BME280;4988;49.238;6.698;2023-05-02T09:16:04;99802.78;;;13.91;72.52
9899;BME280;4988;49.238;6.698;2023-05-02T09:21:05;99804.19;;;13.98;71.77
9899;BME280;4988;49.238;6.698;2023-05-02T09:26:01;99805.31;;;14.11;72.20
9899;BME280;4988;49.238;6.698;2023-05-02T09:28:45;99811.16;;;14.20;73.02
9899;BME280;4988;49.238;6.698;2023-05-02T09:31:12;99817.63;;;14.33;70.68
9899;BME280;4988;49.238;6.698;2023-05-02T09:33:38;99816.38;;;14.40;68.95
9899;BME280;4988;49.238;6.698;2023-05-02T09:36:06;99818.09;;;14.41;70.12
9899;BME280;4988;49.238;6.698;2023-05-02T09:38:32;99820.13;;;14.36;69.44
9899;BME280;4988;49.238;6.698;2023-05-02T09:40:58;99820.44;;;14.30;70.64
9899;BME280;4988;49.238;6.698;2023-05-02T09:43:23;99815.88;;;14.32;71.16
9899;BME280;4988;49.238;6.698;2023-05-02T09:46:08;99827.53;;;14.31;71.13
9899;BME280;4988;49.238;6.698;2023-05-02T09:48:51;99824.78;;;14.32;70.78
9899;BME280;4988;49.238;6.698;2023-05-02T09:51:17;99834.00;;;14.44;69.11
9899;BME280;4988;49.238;6.698;2023-05-02T09:53:43;99834.88;;;14.45;67.69
9899;BME280;4988;49.238;6.698;2023-05-02T09:56:09;99839.03;;;14.51;67.99
9899;BME280;4988;49.238;6.698;2023-05-02T09:58:35;99845.03;;;14.56;68.46
9899;BME280;4988;49.238;6.698;2023-05-02T10:01:00;99836.28;;;14.52;67.19
9899;BME280;4988;49.238;6.698;2023-05-02T10:03:27;99833.88;;;14.47;65.70
9899;BME280;4988;49.238;6.698;2023-05-02T10:05:53;99841.00;;;14.66;66.96
9899;BME280;4988;49.238;6.698;2023-05-02T10:08:20;99834.66;;;14.85;64.23
9899;BME280;4988;49.238;6.698;2023-05-02T10:10:56;99836.66;;;15.15;63.25
9899;BME280;4988;49.238;6.698;2023-05-02T10:13:24;99837.16;;;15.55;63.18
9899;BME280;4988;49.238;6.698;2023-05-02T10:16:02;99821.84;;;15.89;60.82
9899;BME280;4988;49.238;6.698;2023-05-02T10:18:37;99818.44;;;16.17;63.26
9899;BME280;4988;49.238;6.698;2023-05-02T10:21:08;99824.38;;;16.38;61.33
9899;BME280;4988;49.238;6.698;2023-05-02T10:23:34;99824.09;;;16.43;60.51
9899;BME280;4988;49.238;6.698;2023-05-02T10:26:00;99824.97;;;16.44;60.71
9899;BME280;4988;49.238;6.698;2023-05-02T10:28:26;99822.41;;;16.26;60.31
9899;BME280;4988;49.238;6.698;2023-05-02T10:30:52;99830.06;;;16.18;61.95
9899;BME280;4988;49.238;6.698;2023-05-02T10:33:20;99833.63;;;16.02;62.15
9899;BME280;4988;49.238;6.698;2023-05-02T10:35:45;99834.59;;;15.85;60.51
9899;BME280;4988;49.238;6.698;2023-05-02T10:38:15;99834.22;;;15.75;60.09
9899;BME280;4988;49.238;6.698;2023-05-02T10:40:47;99830.22;;;15.67;59.94
9899;BME280;4988;49.238;6.698;2023-05-02T10:43:14;99824.16;;;15.63;59.96
9899;BME280;4988;49.238;6.698;2023-05-02T10:45:40;99829.25;;;15.85;61.13
9899;BME280;4988;49.238;6.698;2023-05-02T10:50:48;99818.16;;;16.22;58.62
9899;BME280;4988;49.238;6.698;2023-05-02T10:56:06;99818.59;;;16.30;58.37
9899;BME280;4988;49.238;6.698;2023-05-02T10:58:32;99816.94;;;16.28;57.84
9899;BME280;4988;49.238;6.698;2023-05-02T11:04:03;99808.94;;;16.12;56.75
9899;BME280;4988;49.238;6.698;2023-05-02T11:11:53;99803.00;;;16.21;58.43
9899;BME280;4988;49.238;6.698;2023-05-02T11:19:22;99794.00;;;16.81;56.91
9899;BME280;4988;49.238;6.698;2023-05-02T11:21:47;99798.94;;;16.89;55.01
9899;BME280;4988;49.238;6.698;2023-05-02T11:30:00;99789.53;;;16.82;56.03
9899;BME280;4988;49.238;6.698;2023-05-02T11:35:36;99780.47;;;16.68;56.32
9899;BME280;4988;49.238;6.698;2023-05-02T11:38:09;99778.50;;;16.86;56.90
9899;BME280;4988;49.238;6.698;2023-05-02T11:40:36;99771.69;;;17.10;56.98
9899;BME280;4988;49.238;6.698;2023-05-02T11:43:15;99773.34;;;17.12;55.77
9899;BME280;4988;49.238;6.698;2023-05-02T11:45:41;99770.72;;;17.11;55.35
9899;BME280;4988;49.238;6.698;2023-05-02T11:48:11;99769.75;;;17.12;56.03
9899;BME280;4988;49.238;6.698;2023-05-02T11:50:41;99770.53;;;17.28;56.53
9899;BME280;4988;49.238;6.698;2023-05-02T11:53:14;99768.88;;;17.40;54.69
9899;BME280;4988;49.238;6.698;2023-05-02T11:55:46;99759.94;;;17.40;54.08
9899;BME280;4988;49.238;6.698;2023-05-02T11:58:13;99762.28;;;17.59;54.79
9899;BME280;4988;49.238;6.698;2023-05-02T12:00:40;99766.91;;;17.57;53.83
9899;BME280;4988;49.238;6.698;2023-05-02T12:03:05;99764.91;;;17.46;52.50
9899;BME280;4988;49.238;6.698;2023-05-02T12:05:31;99765.03;;;17.44;54.21
9899;BME280;4988;49.238;6.698;2023-05-02T12:07:57;99761.69;;;17.26;51.53
9899;BME280;4988;49.238;6.698;2023-05-02T12:10:22;99770.44;;;17.30;53.01
9899;BME280;4988;49.238;6.698;2023-05-02T12:12:48;99764.53;;;17.38;52.84
9899;BME280;4988;49.238;6.698;2023-05-02T12:15:14;99764.91;;;17.46;52.50
9899;BME280;4988;49.238;6.698;2023-05-02T12:17:41;99766.06;;;17.42;51.99
9899;BME280;4988;49.238;6.698;2023-05-02T12:20:08;99761.47;;;17.44;52.00
9899;BME280;4988;49.238;6.698;2023-05-02T12:22:34;99767.25;;;17.38;52.20
9899;BME280;4988;49.238;6.698;2023-05-02T12:25:00;99768.56;;;17.45;52.58
9899;BME280;4988;49.238;6.698;2023-05-02T12:27:28;99767.09;;;17.53;52.81
9899;BME280;4988;49.238;6.698;2023-05-02T12:29:53;99767.78;;;17.57;52.12
9899;BME280;4988;49.238;6.698;2023-05-02T12:32:33;99767.78;;;17.57;52.37
9899;BME280;4988;49.238;6.698;2023-05-02T12:35:01;99768.09;;;17.80;51.90
9899;BME280;4988;49.238;6.698;2023-05-02T12:37:27;99766.72;;;17.87;51.92
9899;BME280;4988;49.238;6.698;2023-05-02T12:39:54;99757.78;;;17.87;49.78
9899;BME280;4988;49.238;6.698;2023-05-02T12:42:24;99763.09;;;17.74;49.94
9899;BME280;4988;49.238;6.698;2023-05-02T12:44:50;99766.03;;;17.56;49.56
9899;BME280;4988;49.238;6.698;2023-05-02T12:47:17;99762.34;;;17.44;50.58
9899;BME280;4988;49.238;6.698;2023-05-02T12:52:18;99774.69;;;17.61;51.41
9899;BME280;4988;49.238;6.698;2023-05-02T12:54:44;99780.84;;;17.49;51.95
9899;BME280;4988;49.238;6.698;2023-05-02T12:57:10;99781.88;;;17.33;52.83
9899;BME280;4988;49.238;6.698;2023-05-02T12:59:46;99782.34;;;17.26;53.84
9899;BME280;4988;49.238;6.698;2023-05-02T13:02:11;99780.91;;;17.20;52.69
9899;BME280;4988;49.238;6.698;2023-05-02T13:04:38;99782.81;;;17.18;53.59
9899;BME280;4988;49.238;6.698;2023-05-02T13:07:04;99782.44;;;17.10;53.45
9899;BME280;4988;49.238;6.698;2023-05-02T13:09:30;99790.03;;;17.03;54.13
9899;BME280;4988;49.238;6.698;2023-05-02T13:11:56;99786.97;;;16.95;55.43
9899;BME280;4988;49.238;6.698;2023-05-02T13:14:23;99789.56;;;16.96;54.48
9899;BME280;4988;49.238;6.698;2023-05-02T13:16:48;99795.88;;;17.10;55.90
9899;BME280;4988;49.238;6.698;2023-05-02T13:19:14;99789.56;;;17.25;56.24
9899;BME280;4988;49.238;6.698;2023-05-02T13:21:39;99786.25;;;17.49;54.04
9899;BME280;4988;49.238;6.698;2023-05-02T13:24:05;99786.72;;;17.56;53.89
9899;BME280;4988;49.238;6.698;2023-05-02T13:26:30;99790.66;;;17.64;53.33
9899;BME280;4988;49.238;6.698;2023-05-02T13:28:57;99788.59;;;17.82;53.89
9899;BME280;4988;49.238;6.698;2023-05-02T13:31:22;99782.19;;;17.98;52.29
9899;BME280;4988;49.238;6.698;2023-05-02T13:33:48;99785.38;;;18.05;51.71
9899;BME280;4988;49.238;6.698;2023-05-02T13:36:13;99781.47;;;18.09;52.39
9899;BME280;4988;49.238;6.698;2023-05-02T13:38:38;99778.56;;;18.12;52.27
9899;BME280;4988;49.238;6.698;2023-05-02T13:41:03;99782.41;;;17.95;53.50
9899;BME280;4988;49.238;6.698;2023-05-02T13:43:29;99789.84;;;17.77;52.70
9899;BME280;4988;49.238;6.698;2023-05-02T13:45:54;99787.28;;;17.61;53.31
9899;BME280;4988;49.238;6.698;2023-05-02T13:48:20;99786.63;;;17.57;53.19
9899;BME280;4988;49.238;6.698;2023-05-02T13:50:45;99789.88;;;17.48;53.95
9899;BME280;4988;49.238;6.698;2023-05-02T13:53:10;99794.16;;;17.23;54.82
9899;BME280;4988;49.238;6.698;2023-05-02T13:55:36;99797.81;;;17.08;55.07
9899;BME280;4988;49.238;6.698;2023-05-02T13:58:01;99799.28;;;16.99;54.95
9899;BME280;4988;49.238;6.698;2023-05-02T14:00:26;99794.31;;;16.91;55.76
9899;BME280;4988;49.238;6.698;2023-05-02T14:02:53;99789.38;;;16.99;54.38
9899;BME280;4988;49.238;6.698;2023-05-02T14:05:18;99791.84;;;16.88;54.58
9899;BME280;4988;49.238;6.698;2023-05-02T14:07:44;99784.38;;;16.93;54.95
9899;BME280;4988;49.238;6.698;2023-05-02T14:10:09;99782.63;;;16.92;54.61
9899;BME280;4988;49.238;6.698;2023-05-02T14:12:35;99778.59;;;16.99;53.31
9899;BME280;4988;49.238;6.698;2023-05-02T14:15:00;99782.47;;;16.95;53.20
9899;BME280;4988;49.238;6.698;2023-05-02T14:17:25;99786.56;;;17.01;53.53